x

8452951 - Potter Cove, Prudence Island, Ri (ptcr1) Weather Station

5:30 - Fri 30th Sep 2016 All times are EDT. -4 hours from GMT.

  • Wind
    15mph, 20mph gusts
  • Ar Temp 59°f
  • Sea Pressure 1029.8mb
  • 8452951 - Potter Cove, Prudence Island, Ri
  • 8452951 - Potter Cove, Prudence Island, Ri

More Historic Weather Station data

Upgrade to MSW Pro to gain access to the past 30 days of data for over 8000 Wavebouys and Weather Stations around the globe.

Join Pro

Comparision Forecast

View Surf forecast
   
Sex 09/30 5:30 15 20 mph 1029.8mb 59f
5:24 15 21 mph 1029.7mb 59f
5:18 15 20 mph 1029.7mb 59f
5:12 15 20 mph 1029.7mb 59f
5:06 15 22 mph 1029.5mb 59f
5:00 15 21 mph 1029.6mb 59f
4:54 15 18 mph 1029.6mb 59f
4:48 15 20 mph 1029.6mb 59f
4:42 14 22 mph 1029.6mb 59f
4:36 17 22 mph 1029.6mb 59f
4:30 15 21 mph 1029.6mb 59f
4:24 15 21 mph 1029.6mb 59f
4:18 15 21 mph 1029.6mb 59f
4:12 14 18 mph 1029.7mb 59f
4:06 15 22 mph 1029.8mb 59f
4:00 14 18 mph 1029.9mb 59f
3:54 14 22 mph 1029.9mb 59f
3:48 14 20 mph 1030mb 59f
3:42 14 21 mph 1030.1mb 59f
3:36 13 21 mph 1030.1mb 59f
3:30 13 17 mph 1030.2mb 59f
3:24 10 16 mph 1030.2mb 59f
3:18 10 16 mph 1030.3mb 59f
3:12 14 21 mph 1030.3mb 59f
3:06 13 17 mph 1030.3mb 59f
3:00 13 17 mph 1030.2mb 59f
2:54 14 21 mph 1030.3mb 59f
2:48 13 16 mph 1030.3mb -
2:42 11 18 mph 1030.4mb -
2:36 13 15 mph 1030.4mb -
2:30 11 17 mph 1030.6mb 59f
2:24 11 18 mph 1030.7mb 59f
2:18 10 16 mph 1030.7mb 59f
2:12 11 17 mph 1030.8mb 59f
2:06 13 17 mph 1030.8mb 59f
2:00 11 17 mph 1030.8mb 59f
1:54 11 15 mph 1030.8mb 59f
1:48 11 15 mph 1030.9mb 59f
1:42 11 15 mph 1030.9mb 58f
1:36 13 20 mph 1031mb 58f
1:30 11 18 mph 1031mb 58f
1:24 13 17 mph 1031mb 58f
1:18 13 18 mph 1031mb 58f
1:12 13 17 mph 1031mb 58f
1:06 13 17 mph 1031mb 58f
1:00 15 18 mph 1031mb 58f
12:54 13 20 mph 1031mb 58f
12:48 11 17 mph 1031mb 58f
12:42 10 16 mph 1031.1mb 58f
12:36 11 17 mph 1031.1mb 58f
12:30 15 22 mph 1031.2mb 58f
12:24 14 20 mph 1031.3mb 58f
12:18 14 18 mph 1031.3mb 58f
12:12 13 18 mph 1031.3mb 58f
12:06 14 20 mph 1031.4mb 58f
12:00 11 17 mph 1031.5mb 58f
Qui 09/29 11:54 13 17 mph 1031.5mb 59f
11:48 14 20 mph - -
11:42 11 18 mph 1031.9mb 58f
11:36 10 16 mph 1032mb 59f
11:30 11 16 mph 1032.1mb 59f
11:24 9 14 mph 1032.1mb 58f
11:18 10 17 mph 1032mb 58f
11:12 10 15 mph 1031.9mb 58f
11:06 10 16 mph 1031.9mb 59f
11:00 11 16 mph 1031.9mb 58f
10:54 11 16 mph 1032mb 58f
10:48 13 18 mph 1031.9mb 58f
10:42 13 16 mph 1031.6mb 58f
10:36 11 15 mph 1032.2mb 58f
10:30 11 17 mph 1032.2mb 58f
10:24 13 20 mph 1032.3mb 58f
10:18 13 17 mph 1032.2mb -
10:12 13 18 mph 1032.1mb 58f
10:06 13 18 mph 1032.1mb 58f
10:00 13 18 mph 1032.2mb 58f
9:54 13 20 mph 1032.1mb 58f
9:48 11 16 mph 1032mb -
9:42 11 17 mph 1032.1mb 58f
9:36 11 15 mph 1032.1mb 58f
9:30 11 20 mph 1032.1mb 58f
9:24 9 15 mph 1032.3mb 58f
9:18 13 20 mph 1032.2mb 58f
9:12 14 20 mph 1032.2mb 58f
9:06 16 23 mph 1031.9mb 58f
9:00 11 17 mph 1031.9mb 58f
8:54 14 22 mph 1032.2mb 58f
8:48 16 21 mph 1032mb 58f
8:42 15 22 mph 1032mb 58f
8:36 14 23 mph 1031.8mb 58f
8:30 14 21 mph 1031.8mb 58f
8:24 15 23 mph 1032mb 58f
8:18 15 20 mph 1032mb -
8:12 15 21 mph 1031.8mb 58f
8:06 16 22 mph 1031.6mb 58f
8:00 17 23 mph 1031.7mb 58f
7:54 15 23 mph 1031.7mb 58f
7:48 17 24 mph 1031.5mb -
7:42 17 23 mph 1031.4mb -
7:36 16 22 mph 1031.5mb -
7:30 17 22 mph 1031.4mb 58f
7:24 17 25 mph 1031.3mb 58f
7:18 16 22 mph 1031.2mb -
7:12 14 18 mph 1031.3mb 58f
7:06 16 24 mph 1031.4mb 58f
7:00 15 22 mph 1031.2mb 58f
6:54 15 21 mph 1031.2mb 58f
6:48 16 24 mph 1031.2mb -
6:42 14 22 mph 1031.3mb -
6:36 17 24 mph 1031.3mb -
6:30 15 21 mph 1031.1mb 58f
6:24 16 23 mph 1031.1mb 59f
6:18  -  mph 1031.1mb -
6:12  -  mph 1031.2mb -
6:06  -  mph 1031.3mb -
6:00 16 21 mph 1031.4mb 59f
5:54 17 23 mph 1031.4mb 59f
5:48 18 25 mph - -
5:42 16 22 mph - 59f
5:36 14 21 mph - 59f
5:30 17 23 mph 1031.2mb 59f
5:24 15 22 mph 1031.2mb 59f
5:18 16 23 mph 1031.3mb 59f
5:12 17 23 mph 1031.2mb 59f
5:06 20 26 mph 1031.2mb 59f
5:00 18 24 mph 1031.2mb 59f
4:54 17 24 mph 1031.1mb 59f
4:48 18 24 mph 1031mb 60f
4:42 18 26 mph 1031mb 60f
4:36 18 25 mph 1031.1mb 59f
4:30 18 25 mph 1031.2mb 60f
4:24 16 23 mph 1031.2mb 60f
4:18 14 21 mph 1031.2mb 60f
4:12 16 23 mph 1031.2mb 60f
4:06 18 25 mph 1031.1mb 60f
4:00 16 23 mph 1031.1mb 60f
3:54 20 26 mph 1031.1mb 60f
3:48 17 22 mph 1031.1mb 60f
3:42 18 25 mph 1031.1mb 60f
3:36 18 26 mph 1031.3mb 60f
3:30 17 23 mph 1031.3mb 60f
3:24 17 24 mph 1031.3mb 60f
3:18 17 23 mph - -
3:12 17 22 mph 1031.3mb 60f
3:06 20 25 mph 1031.3mb 60f
3:00 18 24 mph 1031.2mb 60f
2:54 20 25 mph 1031.4mb 60f
2:48 20 29 mph 1031.4mb 60f
2:42 18 24 mph 1031.3mb 60f
2:36 15 22 mph 1031.3mb 60f
2:30 21 29 mph 1031.4mb 61f
2:24 20 28 mph 1031.3mb 60f
2:18 18 24 mph 1031.3mb 60f
2:12 16 22 mph 1031.3mb 60f
2:06 18 29 mph 1031.2mb 61f
2:00 20 25 mph 1031.2mb 61f
1:54 17 25 mph 1031.1mb 60f
1:48 17 26 mph 1031.1mb 61f
1:42 20 29 mph 1031.2mb 61f
1:36 17 26 mph 1031.4mb 61f
1:30 18 26 mph 1031.4mb 61f
1:24 21 29 mph 1031.4mb 61f
1:18 21 26 mph 1031.4mb 60f
1:12 20 28 mph 1031.3mb 60f
1:06 20 29 mph 1031.2mb 61f
1:00 18 25 mph 1031.3mb 61f
12:54 20 28 mph 1031.4mb 61f
12:48 16 22 mph 1031.4mb 60f
12:42 17 23 mph 1031.7mb 60f
12:36 15 21 mph 1031.7mb 60f
12:30 20 25 mph 1031.8mb 60f
12:24 20 28 mph 1031.7mb 60f
12:18 18 25 mph 1031.6mb 60f
12:12 17 23 mph 1031.5mb 60f
12:06 17 24 mph 1031.5mb 60f
12:00 17 24 mph 1031.6mb 60f
11:54 20 28 mph 1031.5mb 60f
11:48 21 29 mph 1031.4mb 59f
11:42 22 29 mph 1031.4mb 59f
11:36 16 26 mph 1031.5mb 59f
11:30 17 23 mph 1031.4mb 60f
11:24 17 25 mph 1031.4mb 60f
11:18 17 23 mph 1031.4mb 60f
11:12 17 22 mph 1031.3mb 59f
11:06 21 29 mph 1031.2mb 59f
11:00 21 26 mph 1031.1mb 60f
10:54 18 26 mph 1030.8mb 60f
10:48 16 21 mph 1030.8mb 60f
10:42 17 29 mph 1030.8mb 60f
10:36 21 26 mph 1030.8mb 60f
10:30 21 28 mph 1030.6mb 60f
10:24 18 28 mph 1030.6mb 59f
10:18 18 25 mph 1030.7mb 59f
10:12 22 28 mph 1030.6mb 59f
10:06 22 26 mph 1030.7mb 59f
10:00 18 28 mph 1030.8mb 59f
9:54 17 26 mph 1030.8mb 59f
9:48 18 25 mph 1030.8mb 59f
9:42 18 26 mph 1030.9mb 58f
9:36 16 22 mph 1030.6mb 58f
9:30 18 25 mph 1030.5mb 59f
9:24 17 24 mph 1030.4mb 58f
9:18 18 24 mph 1030.4mb 58f
9:12 16 22 mph 1030.4mb 58f
9:06 17 23 mph 1030.5mb 58f
9:00 17 23 mph 1030.4mb 58f
8:54 16 22 mph 1030.5mb 58f
8:48 18 25 mph 1030.4mb 58f
8:42 20 28 mph 1030.2mb 58f
8:36 18 26 mph 1030.1mb 58f
8:30 21 26 mph 1030mb 58f
8:24 20 25 mph 1029.8mb 58f
8:18 21 28 mph 1029.8mb 58f
8:12 20 26 mph 1029.7mb 58f
8:06 18 25 mph 1029.7mb 58f
8:00 16 22 mph 1029.7mb 58f
7:54 18 24 mph 1029.6mb 58f
7:48 20 26 mph 1029.5mb 58f
7:42 18 24 mph 1029.5mb 58f
7:36 18 25 mph 1029.5mb 58f
7:30 20 24 mph 1029.4mb 59f
7:24 18 24 mph 1029.4mb 58f
7:18 18 23 mph 1029.4mb 58f
7:12 17 23 mph 1029.2mb 59f
7:06 17 23 mph 1029.1mb 58f
7:00 15 21 mph 1029.1mb 59f
6:54 17 24 mph 1029mb 58f
6:48 15 20 mph 1029mb 59f
6:42 16 21 mph 1028.9mb 59f
6:36 15 20 mph 1028.7mb 58f
6:30 18 25 mph 1028.5mb 59f
6:24 18 26 mph 1028.6mb 59f
6:18 22 28 mph 1028.6mb 59f
6:12 21 28 mph 1028.6mb 59f
6:06 16 22 mph 1028.6mb 59f
6:00 16 21 mph 1028.6mb 59f
5:54 17 24 mph 1028.5mb 59f
5:48 18 23 mph 1028.3mb 59f
5:42 20 29 mph 1028.2mb 59f
5:36 18 24 mph 1028.3mb 59f
5:30 18 23 mph 1028.3mb 60f
5:24 15 24 mph 1028.3mb 60f
5:18 18 28 mph 1028.2mb 60f
5:12 15 22 mph 1028.1mb 60f
5:06 18 26 mph 1028.1mb 60f
5:00 17 24 mph 1027.9mb 60f
4:54 17 26 mph 1027.7mb 60f
4:48 20 28 mph - -
4:42 18 25 mph 1027.5mb 60f
4:36 17 22 mph 1027.5mb 60f
4:30 17 23 mph 1027.5mb 60f
4:24 15 22 mph 1027.5mb 60f
4:18 17 24 mph 1027.4mb 60f
4:12 16 22 mph 1027.4mb 60f
4:06 17 24 mph 1027.2mb 60f
4:00 18 25 mph 1027.2mb 60f
3:54 17 23 mph 1027.1mb 60f
3:48 18 24 mph 1027.1mb 60f
3:42 20 25 mph 1027.1mb 60f
3:36 18 25 mph 1027mb 60f
3:30 20 25 mph 1027mb 60f
3:24 20 25 mph 1026.9mb 60f
3:18 16 22 mph - -
3:12 15 23 mph 1026.9mb 60f
3:06 16 23 mph 1026.9mb 60f
3:00 15 20 mph 1026.9mb 60f
2:54 15 21 mph 1026.9mb 60f
2:48 17 24 mph 1026.7mb -
2:42 16 24 mph 1026.7mb -
2:36 17 23 mph 1026.6mb -
2:30 18 24 mph 1026.5mb 60f
2:24 16 23 mph 1026.4mb 60f
2:18 20 25 mph 1026.4mb 60f
2:12 20 25 mph 1026.3mb 60f
2:06 17 25 mph 1026.3mb 60f
2:00 18 24 mph 1026.2mb 60f
1:54 17 24 mph 1026.3mb 60f
1:48 20 25 mph 1026.3mb 60f
1:42 17 25 mph 1026.3mb -
1:36 16 22 mph 1026.5mb -
1:30 17 23 mph 1026.6mb 60f
1:24 16 22 mph 1026.6mb 60f
1:18 16 23 mph 1026.7mb 60f
1:12 17 24 mph 1026.7mb 60f
1:06 16 23 mph 1026.7mb 60f
1:00 16 22 mph 1026.6mb 60f
12:54 16 22 mph 1026.6mb 60f
12:48 17 22 mph 1026.7mb 60f
12:42 15 22 mph 1026.6mb 60f
12:36 16 23 mph 1026.7mb 60f
12:30 16 23 mph 1026.7mb 60f
12:24 16 22 mph 1026.5mb 60f
12:18 16 22 mph 1026.4mb 60f
12:12 17 23 mph 1026.4mb 60f
12:06 17 23 mph 1026.3mb 60f
12:00 15 21 mph 1026.3mb 60f
Qua 09/28 11:54 17 21 mph 1026.4mb 60f
11:48 17 22 mph - -
11:42 17 24 mph 1026.4mb 60f
11:36 17 24 mph 1026.3mb 60f
11:30 15 20 mph 1026.4mb 60f
11:24 15 21 mph 1026.6mb 60f
11:18 16 22 mph 1026.6mb 60f
11:12 15 21 mph 1026.6mb 60f
11:06 16 22 mph 1026.6mb 60f
11:00 16 20 mph 1026.5mb 60f
10:54 16 21 mph 1026.5mb 60f
10:48 14 21 mph 1026.4mb 60f
10:42 14 18 mph 1026.4mb 60f
10:36 14 20 mph 1026.4mb 60f
10:30 15 20 mph 1026.4mb 60f
10:24 16 21 mph 1026.3mb 60f
10:18 15 20 mph 1026mb 60f
10:12 15 21 mph 1026mb 60f
10:06 15 21 mph 1026mb 60f
10:00 15 20 mph 1025.9mb 60f
9:54 15 20 mph 1025.9mb 60f
9:48 14 21 mph 1025.9mb 59f
9:42 14 20 mph 1025.8mb 60f
9:36 16 22 mph 1025.8mb 60f
9:30 16 21 mph 1025.6mb 60f
9:24 15 21 mph 1025.5mb 59f
9:18 15 20 mph 1025.5mb 59f
9:12 15 20 mph 1025.5mb 59f
9:06 16 20 mph 1025.3mb 59f
9:00 16 21 mph 1025.3mb 59f
8:54 16 21 mph 1025.3mb 59f
8:48 17 21 mph 1025.3mb -
8:42 17 25 mph 1025.3mb 59f
8:36 17 23 mph 1025.2mb 59f
8:30 17 22 mph - 59f
8:24 17 24 mph - 59f
8:18 16 21 mph 1025mb 59f
8:12 20 24 mph 1025mb 58f
8:06 17 23 mph 1025mb 58f
8:00 15 26 mph 1024.8mb 59f
7:54 17 23 mph 1024.8mb 58f
7:48 16 23 mph 1024.7mb -
7:42 17 23 mph 1024.6mb -
7:36 18 24 mph 1024.5mb -
7:30 17 22 mph 1024.5mb 58f
7:24 17 22 mph 1024.3mb 58f
7:18 17 23 mph 1024.3mb -
7:12 17 24 mph 1024.2mb 58f
7:06 17 22 mph 1024.3mb 58f
7:00 16 22 mph 1024.1mb 58f
6:54 17 24 mph 1024.1mb 58f
6:48 17 25 mph 1024.2mb -
6:42 21 26 mph 1024.1mb -
6:36 20 26 mph 1023.9mb -
6:30 18 25 mph 1023.9mb 58f
6:24 18 23 mph 1024mb 58f
6:18 17 23 mph 1024.1mb 58f
6:12 18 24 mph 1024.1mb 58f
6:06 20 24 mph 1024.1mb 58f
6:00 18 25 mph 1024mb 58f
5:54 17 24 mph 1024mb 58f
5:48 17 22 mph 1024mb 58f
5:42 17 23 mph 1024mb 58f
5:36 18 24 mph 1024mb 58f
5:30 17 24 mph 1024.2mb 58f
5:24 17 23 mph 1024.1mb 58f
5:18 17 23 mph 1024.1mb 58f
5:12 17 26 mph 1024.1mb 58f
5:06 17 25 mph 1024.2mb 58f
5:00 18 25 mph 1023.9mb 58f
4:54 18 26 mph 1023.7mb 58f
4:48 22 28 mph 1023.7mb 58f
4:42 20 25 mph 1023.5mb 57f
4:36 20 25 mph 1023.6mb 58f
4:30 21 29 mph 1023.6mb 58f
4:24 21 29 mph 1023.6mb 58f
4:18 20 26 mph 1023.6mb 58f
4:12 20 25 mph 1023.5mb 58f
4:06 21 28 mph 1023.5mb 58f
4:00 20 26 mph 1023.4mb 58f
3:54 22 29 mph 1023.3mb 58f
3:48 22 29 mph 1023.3mb 58f
3:42 20 29 mph 1023.3mb 59f
3:36 21 28 mph 1023.2mb 59f
3:30 20 26 mph 1023.2mb 59f
3:24 22 30 mph 1023.2mb 60f
3:18 21 28 mph 1023.3mb 59f
3:12 21 29 mph 1023.1mb 60f
3:06 18 25 mph 1023.2mb 60f
3:00 21 29 mph 1023.2mb 60f
2:54 22 28 mph 1023.1mb 60f
2:48 18 31 mph 1022.9mb 60f
2:42 21 29 mph 1023mb 60f
2:36 21 29 mph 1022.9mb 60f
2:30 20 28 mph 1022.8mb 60f
2:24 21 30 mph 1022.7mb 60f
2:18 17 23 mph 1022.7mb 60f
2:12 18 26 mph 1022.6mb 60f
2:06 20 26 mph 1022.5mb 60f
2:00 18 24 mph 1022.5mb 61f
1:54 16 28 mph 1022.5mb 61f
1:48 16 25 mph - -
1:42 17 25 mph 1022.5mb 61f
1:36 17 24 mph 1022.5mb 61f
1:30 16 25 mph 1022.6mb 61f
1:24 17 23 mph 1022.7mb 62f
1:18 16 22 mph 1022.7mb 62f
1:12 18 25 mph 1022.6mb 62f
1:06 18 23 mph 1022.6mb 62f
1:00 16 26 mph 1022.6mb 62f
12:54 18 24 mph 1022.6mb 62f
12:48 14 21 mph 1022.6mb 62f
12:42 16 23 mph 1022.6mb 62f
12:36 16 22 mph 1022.6mb 63f
12:30 16 24 mph 1022.5mb 63f
12:24 15 24 mph 1022.5mb 63f
12:18 15 22 mph 1022.5mb 63f
12:12 18 23 mph 1022.4mb 62f
12:06 16 22 mph 1022.4mb 63f
12:00 17 25 mph 1022.5mb 62f
11:54 17 24 mph 1022.4mb 63f
11:48 16 21 mph 1022.2mb 63f
11:42 18 24 mph 1022.2mb 62f
11:36 15 22 mph 1022.2mb 63f
11:30 17 25 mph 1022.3mb 62f
11:24 15 22 mph 1022.3mb 62f
11:18 16 23 mph 1022.3mb 62f
11:12 14 21 mph 1022.3mb 62f
11:06 15 24 mph 1022.2mb 62f
11:00 16 25 mph 1022.4mb 62f
10:54 16 25 mph 1022.4mb 62f
10:48 15 21 mph 1022.4mb 62f
10:42 17 23 mph 1022.4mb 62f
10:36 16 23 mph 1022.3mb 62f
10:30 15 22 mph 1022.3mb 62f
10:24 15 22 mph 1022.3mb 62f
10:18 16 22 mph 1022.4mb 62f
10:12 17 23 mph 1022.4mb 61f
10:06 16 22 mph 1022.4mb 61f
10:00 18 24 mph 1022.3mb 62f
9:54 14 21 mph 1022.4mb 61f
9:48 17 23 mph 1022.4mb 62f
9:42 16 22 mph 1022.4mb 62f
9:36 14 20 mph 1022.4mb 62f
9:30 15 22 mph 1022.3mb 62f
9:24 14 20 mph 1022.2mb 62f
9:18 15 21 mph 1022.2mb 62f
9:12 15 21 mph 1022.2mb 61f
9:06 15 20 mph 1022.1mb 61f
9:00 15 22 mph 1022.1mb 61f
8:54 13 18 mph 1022mb 61f
8:48 13 20 mph 1021.9mb 61f
8:42 13 18 mph 1021.8mb 61f
8:36 14 18 mph 1021.7mb 61f
8:30 14 18 mph 1021.6mb 61f
8:24 14 18 mph 1021.5mb 61f
8:18 15 20 mph 1021.3mb 61f
8:12 17 24 mph 1021.3mb 61f
8:06 17 24 mph 1021.1mb 61f
8:00 14 20 mph 1021mb 61f
7:54 15 22 mph 1021mb 61f
7:48 15 20 mph 1020.8mb 62f
7:42 15 21 mph 1020.8mb 62f
7:36 17 22 mph 1020.7mb 62f
7:30 15 21 mph 1020.6mb 62f
7:24 14 17 mph 1020.6mb 62f
7:18 14 20 mph 1020.6mb 62f
7:12 15 21 mph 1020.5mb 62f
7:06 14 20 mph 1020.4mb 62f
7:00 13 18 mph 1020.2mb 62f
6:54 14 17 mph 1020.2mb 62f
6:48 13 17 mph - -
6:42 13 17 mph 1020.1mb 62f
6:36 13 17 mph 1020mb 62f
6:30 11 17 mph 1019.9mb 62f
6:24 11 15 mph 1019.9mb 62f
6:18 11 15 mph 1019.7mb 62f
6:12 10 14 mph 1019.6mb 62f
6:06 13 17 mph 1019.6mb 62f
6:00 13 17 mph 1019.6mb 62f
5:54 11 17 mph 1019.5mb 62f
5:48 11 15 mph 1019.5mb 62f
5:42 13 17 mph 1019.5mb 62f
5:36 13 16 mph 1019.4mb 62f
5:30 13 16 mph 1019.3mb 62f
5:24 14 17 mph 1019.3mb 62f
5:18 11 16 mph 1019.2mb 62f
5:12 11 17 mph 1019mb 62f
5:06 11 15 mph 1019mb 62f
5:00 11 16 mph 1018.9mb 62f
4:54 13 16 mph 1018.9mb 62f
4:48 11 15 mph 1018.9mb 62f
4:42 13 17 mph 1018.8mb 62f
4:36 11 16 mph 1018.7mb 62f
4:30 9 13 mph 1018.6mb 62f
4:24 8 11 mph 1018.5mb 62f
4:18 10 14 mph 1018.4mb 62f
4:12 8 11 mph 1018.3mb 62f
4:06 8 11 mph 1018.3mb 62f
4:00 8 11 mph 1018.2mb 62f
3:54 8 11 mph 1018.2mb 62f
3:48 9 13 mph 1018.1mb 62f
3:42 8 10 mph 1018.1mb 62f
3:36 9 13 mph 1018mb 62f
3:30 9 13 mph 1018mb 62f
3:24 8 11 mph 1018.1mb 62f
3:18 8 10 mph 1018.1mb 61f
3:12 7 10 mph 1017.9mb 61f
3:06 6 7 mph 1017.7mb 61f
3:00 6 9 mph 1017.9mb 61f
2:54 6 8 mph 1017.7mb 62f
2:48 5 6 mph - -
2:42 3 5 mph 1017.8mb 62f
2:36 5 8 mph 1017.7mb 62f
2:30 6 7 mph 1017.6mb 63f
2:24 5 6 mph 1017.6mb 63f
2:18 6 8 mph 1017.6mb 63f
2:12 6 9 mph 1017.6mb 63f
2:06 7 10 mph 1017.5mb 63f
2:00 7 8 mph 1017.4mb 64f
1:54 6 8 mph 1017.3mb 64f
1:48 6 7 mph 1017.4mb 64f
1:42 6 8 mph 1017.3mb -
1:36 5 7 mph 1017.2mb -
1:30 6 7 mph 1017.2mb 64f
1:24 5 7 mph 1017.3mb 64f
1:18 3 6 mph 1017.2mb 64f
1:12 5 7 mph 1017.3mb 64f
1:06 3 6 mph 1017.1mb 64f
1:00 5 7 mph 1017mb 64f
12:54 3 5 mph 1016.9mb 64f
12:48 3 5 mph 1017mb 64f
12:42 5 7 mph 1016.8mb 64f
12:36 3 6 mph 1016.9mb 64f
12:30 2 3 mph 1016.8mb 64f
12:24 2 3 mph 1016.6mb 64f
12:18 2 3 mph 1016.6mb 64f
12:12 1 2 mph 1016.7mb 64f
12:06 2 3 mph 1016.5mb 64f
12:00 2 5 mph 1016.5mb 64f
Ter 09/27 11:54 2 3 mph 1016.4mb 64f
11:48 2 3 mph 1016.3mb 64f
11:42 3 5 mph 1016.2mb 64f
11:36 1 3 mph 1016.4mb 64f
11:30 1 2 mph 1016.3mb 64f
11:24 1 2 mph 1016.4mb 64f
11:18 1 2 mph 1016.2mb 64f
11:12  -  1 mph 1016.2mb 64f
11:06 1
mph
1016.3mb 64f
11:00 2
mph
1016.2mb 64f
10:54 2 3 mph 1016.1mb 64f
10:48 1
mph
- -
10:42 1 2 mph 1016mb 64f
10:36 2
mph
1016.2mb 64f
10:30 2
mph
1016.1mb 63f
10:24 2
mph
1016mb 63f
10:18 1 2 mph 1016mb -
10:12  -  1 mph 1015.9mb 63f
10:06  -  1 mph 1015.7mb 64f
10:00  -  1 mph 1015.6mb 64f
9:54 2 3 mph 1015.6mb 64f
9:48 2
mph
1015.6mb 64f
9:42 1 2 mph 1015.5mb 64f
9:36 1 2 mph 1015.4mb 64f
9:30 1 2 mph 1015.4mb 64f
9:24 1 2 mph 1015.3mb 64f
9:18 2
mph
- -
9:12 2 3 mph - 64f
9:06 2 3 mph - 64f
9:00 2 3 mph 1015.2mb 64f
8:54 2
mph
1015.3mb 64f
8:48 1 2 mph 1015.2mb -
8:42 1 2 mph 1015mb 64f
8:36 2 3 mph 1014.9mb 64f
8:30 1 2 mph 1014.8mb 65f
8:24 2 3 mph 1014.8mb 65f
8:18 2 5 mph 1014.7mb 65f
8:12 3 5 mph 1014.8mb 65f
8:06 2 5 mph 1014.6mb 65f
8:00 2 5 mph 1014.6mb 65f
7:54 3 5 mph 1014.6mb 65f
7:48 3 6 mph 1014.5mb -
7:42 2 3 mph 1014.4mb -
7:36 3 6 mph 1014.4mb -
7:30 2 6 mph 1014.2mb 66f
7:24 3 7 mph 1014.2mb 66f
7:18 2 5 mph 1014.1mb 66f
7:12 3 7 mph 1014.1mb 66f
7:06 3 6 mph 1014mb 66f
7:00 3 6 mph 1014mb 66f
6:54 3 8 mph 1014mb 66f
6:48 3 6 mph 1014mb 66f
6:42 3 7 mph 1014mb 66f
6:36 3 7 mph 1014mb 66f
6:30 2 6 mph 1013.9mb 66f
6:24 2 7 mph 1013.8mb 67f
6:18 2 6 mph 1013.6mb 67f
6:12 3 6 mph 1013.5mb 67f
6:06 2 5 mph 1013.3mb 67f
6:00 2 6 mph 1013.2mb 67f
5:54 3 6 mph 1013.2mb 68f
5:48 5 9 mph - 67f
5:42 5 9 mph - 67f
5:36 6 9 mph - 68f
5:30 5 11 mph 1013.3mb 68f
5:24 5 9 mph 1013.2mb 68f
5:18 3 9 mph 1013.3mb 68f
5:12 2 6 mph 1013.3mb 69f
5:06 2 5 mph 1013.2mb 69f
5:00 1 2 mph 1013mb 69f
4:54 2 3 mph 1012.9mb 69f
4:48  -  1 mph 1013mb 69f
4:42  -  2 mph 1013mb 70f
4:36  -  2 mph 1012.9mb 70f
4:30 2 5 mph 1012.8mb 70f
4:24 1 3 mph 1012.9mb 70f
4:18  -  2 mph 1012.8mb 70f
4:12 2 3 mph 1012.7mb 70f
4:06  -  1 mph 1012.8mb 70f
4:00 1 2 mph 1012.8mb 70f
3:54  -  2 mph 1012.9mb 70f
3:48 2 3 mph 1012.9mb 70f
3:42 2 3 mph 1012.9mb 70f
3:36 1 3 mph 1012.9mb 70f
3:30 2 5 mph 1013mb 70f
3:24 1 2 mph 1012.9mb 70f
3:18 1 3 mph 1012.9mb -
3:12 2 3 mph 1012.9mb 70f
3:06 1 5 mph 1012.9mb 70f
3:00 2 3 mph 1012.9mb 70f
2:54 1 2 mph 1012.8mb 70f
2:48 1 2 mph 1012.8mb 70f
2:42 2 3 mph 1012.8mb 70f
2:36 2 3 mph 1012.8mb 70f
2:30 2 3 mph 1012.8mb 70f
2:24 2
mph
1012.8mb 71f
2:18  -  1 mph 1012.8mb 71f
2:12 2 3 mph 1012.8mb 70f
2:06 1 3 mph 1012.8mb 70f
2:00 1 2 mph 1012.9mb 70f
1:54 2 5 mph 1013mb 69f
1:48 1 3 mph 1013.1mb 70f
1:42 1 3 mph 1013mb 70f
1:36 3 5 mph 1013.1mb 69f
1:30 2 5 mph 1013mb 69f
1:24 3 5 mph 1013mb 69f
1:18 3 6 mph 1013.1mb 69f
1:12 3 6 mph 1013.2mb 70f
1:06 2 5 mph 1013.2mb 69f
1:00 2 5 mph 1013.2mb 69f
12:54 2 3 mph 1013.2mb 70f
12:48 2 3 mph 1013.2mb 70f
12:42 2 6 mph 1013.1mb 69f
12:36 3 6 mph 1013.1mb 69f
12:30 2 6 mph 1013.1mb 69f
12:24 3 7 mph 1013.2mb 69f
12:18 3 7 mph 1013.2mb 69f
12:12 5 8 mph 1013.2mb 68f
12:06 3 6 mph 1013.2mb 68f
12:00 3 7 mph 1013.3mb 68f
11:54 5 7 mph 1013.2mb 68f
11:48 3 5 mph 1013.1mb 68f
11:42 5 7 mph 1013.3mb 68f
11:36 3 6 mph 1013.3mb 68f
11:30 5 8 mph 1013.4mb 68f
11:24 2 6 mph 1013.4mb 68f
11:18 5 7 mph 1013.3mb 67f
11:12 2 7 mph 1013.2mb 67f
11:06 5 6 mph 1013.1mb 67f
11:00 6 8 mph 1013.2mb 66f
10:54 5 7 mph 1013.2mb 66f
10:48 5 7 mph 1013.2mb 66f
10:42 2 5 mph 1013.2mb 66f
10:36 3 5 mph 1013.3mb 66f
10:30 3 5 mph 1013.2mb 66f
10:24 3 7 mph 1013.3mb 66f
10:18 2 6 mph 1013.1mb 66f
10:12 2 6 mph 1013.2mb 66f
10:06 1 2 mph 1013mb 66f
10:00 3 6 mph 1013.3mb 65f
9:54 3 5 mph 1013.3mb 65f
9:48 6 9 mph - -
9:42 5 7 mph 1013.2mb 65f
9:36 5 8 mph 1013.1mb 65f
9:30 6 8 mph 1013mb 65f
9:24 6 8 mph 1013mb 66f
9:18 5 7 mph 1013mb 66f
9:12 6 9 mph 1013mb 66f
9:06 5 7 mph 1012.8mb 66f
9:00 3 6 mph 1012.8mb 66f
8:54 3 6 mph 1012.7mb 67f
8:48 5 7 mph 1012.6mb 67f
8:42 6 10 mph 1012.6mb 67f
8:36 7 13 mph 1012.6mb 67f
8:30 8 15 mph 1012.7mb 67f
8:24 9 15 mph 1012.4mb 67f
8:18 10 18 mph 1012.3mb 67f
8:12 10 18 mph 1012.3mb 67f
8:06 9 16 mph 1012.2mb 67f
8:00 9 15 mph 1012mb 67f
7:54 10 14 mph 1012mb 67f
7:48 11 21 mph 1012mb 67f
7:42 9 16 mph 1012mb 67f
7:36 9 16 mph 1012mb 67f
7:30 8 14 mph 1012.1mb 67f
7:24 7 11 mph 1012.2mb 67f
7:18 6 16 mph 1012.4mb 66f
7:12 6 11 mph 1012.3mb 66f
7:06 6 14 mph 1012.4mb 66f
7:00 6 13 mph 1012.5mb 66f
6:54 7 13 mph 1012.6mb 66f
6:48 7 15 mph 1012.6mb 66f
6:42 7 13 mph 1012.7mb 66f
6:36 6 13 mph 1012.8mb 66f
6:30 6 10 mph 1012.9mb 65f
6:24 5 8 mph 1013mb 65f
6:18 7 13 mph 1013.2mb 65f
6:12 7 14 mph 1013.2mb 65f
6:06 6 10 mph 1013.2mb 65f
6:00 7 11 mph 1013.2mb 65f
5:54 8 15 mph 1013.3mb 65f
5:48 7 10 mph 1013.3mb 66f
5:42 6 10 mph 1013.3mb 66f
5:36 6 10 mph 1013.3mb 66f
5:30 6 10 mph 1013.3mb 67f
5:24 5 10 mph 1013.3mb 67f
5:18 6 11 mph 1013.3mb 67f
5:12 5 10 mph 1013.3mb 67f
5:06 5 13 mph 1013.3mb 68f
5:00 5 8 mph 1013.3mb 68f
4:54 6 11 mph 1013.4mb 68f
4:48 6 14 mph 1013.6mb 68f
4:42 7 15 mph 1013.6mb 68f
4:36 6 14 mph 1013.6mb 68f
4:30 6 14 mph 1013.6mb 68f
4:24 7 16 mph 1013.6mb 68f
4:18 7 16 mph 1013.6mb 68f
4:12 7 15 mph 1013.9mb 68f
4:06 7 15 mph 1013.9mb 68f
4:00 6 14 mph 1013.9mb 68f
3:54 6 14 mph 1014mb 67f
3:48 7 15 mph 1014.2mb 67f
3:42 6 13 mph 1014.2mb 67f
3:36 6 14 mph 1014.3mb 67f
3:30 7 14 mph 1014.4mb 67f
3:24 6 11 mph 1014.5mb 67f
3:18 7 13 mph 1014.5mb 67f
3:12 6 11 mph 1014.7mb 67f
3:06 6 14 mph 1014.9mb 67f
3:00 6 10 mph 1014.9mb 67f
2:54 6 11 mph 1015.2mb 67f
2:48 6 15 mph 1015.3mb -
2:42 7 16 mph 1015.3mb -
2:36 7 11 mph 1015.4mb -
2:30 6 10 mph 1015.4mb 67f
2:24 7 13 mph 1015.6mb 67f
2:18 7 14 mph 1015.7mb 67f
2:12 6 13 mph 1015.7mb 67f
2:06 6 11 mph 1015.6mb 67f
2:00 7 14 mph 1015.6mb 67f
1:54 6 13 mph 1015.7mb 66f
1:48 6 10 mph 1015.8mb -
1:42 7 11 mph 1015.8mb -
1:36 7 11 mph 1015.9mb -
1:30 7 13 mph 1015.9mb 66f
1:24 7 13 mph 1016mb 66f
1:18 6 11 mph 1016mb 66f
1:12 7 14 mph 1016mb 66f
1:06 6 11 mph 1016.1mb 66f
1:00 7 14 mph 1016.2mb 66f
12:54 8 15 mph 1016.3mb 66f
12:48 7 14 mph 1016.3mb 66f
12:42 8 14 mph 1016.4mb 66f
12:36 8 14 mph 1016.6mb 66f
12:30 8 14 mph 1016.6mb 66f
12:24 7 15 mph 1016.7mb 66f
12:18 8 16 mph 1016.7mb 66f
12:12 8 20 mph 1016.9mb 66f
12:06 8 20 mph 1017mb 66f
12:00 7 14 mph 1017.2mb 66f
Seg 09/26 11:54 6 13 mph 1017.2mb 66f
11:48 7 13 mph 1017.5mb 66f
11:42 6 13 mph 1017.5mb 66f
11:36 6 17 mph 1017.6mb 66f
11:30 7 16 mph 1017.7mb 65f
11:24 7 14 mph 1017.7mb 65f
11:18 6 11 mph 1017.9mb 65f
11:12 8 20 mph 1018mb 65f
11:06 7 15 mph 1018.1mb 65f
11:00 7 13 mph 1018.2mb 65f
10:54 7 13 mph 1018.3mb 65f
10:48 7 14 mph - -
10:42 8 14 mph 1018.4mb 64f
10:36 7 15 mph 1018.5mb 64f
10:30 7 13 mph 1018.6mb 64f
10:24 8 17 mph 1018.6mb 64f
10:18 8 16 mph 1018.6mb 64f
10:12 7 13 mph 1018.6mb 64f
10:06 7 11 mph 1018.7mb 64f
10:00 8 17 mph 1018.8mb 64f
9:54 7 16 mph 1018.9mb 64f
9:48 6 10 mph 1019mb 64f
9:42 6 14 mph 1018.9mb 64f
9:36 7 14 mph 1018.9mb 64f
9:30 6 10 mph 1018.9mb 64f
9:24 6 13 mph 1018.9mb 63f
9:18  -  mph 1018.9mb 63f
9:12  -  mph 1018.8mb 63f
9:06  -  mph 1018.8mb 63f
9:00 6 11 mph 1018.8mb 63f
8:54 6 11 mph 1018.9mb 63f
8:48 7 11 mph 1019.1mb 63f
8:42 6 10 mph 1019.1mb 62f
8:36 6 10 mph 1019.2mb 62f
8:30 5 8 mph 1019.2mb 62f
8:24 6 10 mph 1019.3mb 62f
8:18  -  mph 1019.3mb -
8:12  -  mph 1019.2mb 62f
8:06  -  mph 1019.2mb 62f
8:00 6 11 mph 1019.3mb 62f
7:54 5 8 mph 1019.3mb 62f
7:48 3 8 mph 1019.2mb -
7:42 5 9 mph 1019.2mb 62f
7:36 5 9 mph 1019.2mb 62f
7:30 5 10 mph 1019.2mb 62f
7:24 6 10 mph 1019.4mb 62f
7:18 6 11 mph 1019.4mb 62f
7:12 6 11 mph 1019.4mb 62f
7:06 6 11 mph 1019.5mb 62f
7:00 5 8 mph 1019.5mb 62f
6:54 3 7 mph 1019.7mb 61f
6:48 5 8 mph 1019.7mb -
6:42 6 10 mph 1019.9mb -
6:36 6 9 mph 1019.9mb -
6:30 7 13 mph - 62f
6:24 8 13 mph - 62f
6:18 7 11 mph 1020.1mb -
6:12 8 15 mph 1020mb 62f
6:06 7 14 mph 1020mb 62f
6:00 7 14 mph 1020.1mb 62f
5:54 8 13 mph 1020.1mb 62f
5:48 7 13 mph 1020.1mb 62f
5:42 7 15 mph 1020.1mb 62f
5:36 7 14 mph 1020.2mb 63f
5:30 7 13 mph 1020.2mb 63f
5:24 9 16 mph 1020.2mb 64f
5:18 6 14 mph 1020.1mb 64f
5:12 6 14 mph 1020.1mb 64f
5:06 8 15 mph 1020.1mb 64f
5:00 6 14 mph 1020.2mb 64f
4:54 7 14 mph 1020.2mb 64f
4:48 7 13 mph 1020.3mb 64f
4:42 6 11 mph 1020.5mb 64f
4:36 6 11 mph 1020.5mb 63f
4:30 6 13 mph 1020.5mb 63f
4:24 6 15 mph 1020.6mb 63f
4:18 8 15 mph 1020.8mb 63f
4:12 7 16 mph 1020.8mb 63f
4:06 8 15 mph 1020.8mb 62f
4:00 7 15 mph 1020.8mb 63f
3:54 7 16 mph 1020.8mb 63f
3:48 7 17 mph 1020.8mb 63f
3:42 7 15 mph 1021mb 63f
3:36 7 17 mph 1021mb 63f
3:30 8 16 mph 1021mb 63f
3:24 7 18 mph 1021.1mb 63f
3:18 6 11 mph 1021.2mb 64f
3:12 6 13 mph 1021.3mb 64f
3:06 6 11 mph 1021.4mb 64f
3:00 7 14 mph 1021.4mb 64f
2:54 6 13 mph 1021.4mb 64f
2:48 6 14 mph 1021.5mb 64f
2:42 7 13 mph 1021.5mb 64f
2:36 7 11 mph 1021.5mb 63f
2:30 6 10 mph 1021.5mb 64f
2:24 5 9 mph 1021.6mb 65f
2:18 3 9 mph 1021.6mb 65f
2:12 6 9 mph 1021.6mb 65f
2:06 5 8 mph 1021.7mb 65f
2:00 3 9 mph 1021.7mb 65f
1:54 5 8 mph 1021.8mb 65f
1:48 3 7 mph 1021.9mb 65f
1:42 1 3 mph 1021.9mb 65f
1:36 3 6 mph 1021.9mb 65f
1:30 3 6 mph 1021.9mb 64f
1:24 5 8 mph 1022mb 64f
1:18 3 6 mph 1022.1mb 63f
1:12 6 7 mph 1022.2mb 63f
1:06 6 8 mph 1022.3mb 63f
1:00 5 7 mph 1022.3mb 63f
12:54 3 6 mph 1022.4mb 62f
12:48 5 7 mph 1022.5mb 62f
12:42 2 6 mph 1022.7mb 63f
12:36 3 6 mph 1022.7mb 62f
12:30 2 5 mph 1022.8mb 63f
12:24 1 3 mph 1022.8mb 62f
12:18 2 5 mph 1022.8mb 62f
12:12 2 3 mph 1022.8mb 63f
12:06 2 5 mph 1022.8mb 63f
12:00 3 6 mph 1022.8mb 62f
11:54 2 6 mph 1022.9mb 62f
11:48 2 5 mph 1023.1mb 62f
11:42 2 3 mph 1023.1mb 62f
11:36 2 5 mph 1023.2mb 63f
11:30 3 6 mph 1023.4mb 61f
11:24 3 6 mph 1023.4mb 62f
11:18 3 6 mph 1023.4mb 62f
11:12 2 6 mph 1023.7mb 61f
11:06 2 6 mph 1023.7mb 61f
11:00 3 7 mph 1023.8mb 60f
10:54 2 7 mph 1023.8mb 60f
10:48 2 3 mph 1023.8mb 59f
10:42 1 5 mph 1023.8mb 61f
10:36 1 2 mph 1023.9mb 60f
10:30 1 3 mph 1023.9mb 59f
10:24 2 3 mph 1023.9mb 59f